Archival Weather

Snohomish County (Paine Fld)

Everett, Washington (KPAE)

Report from: Saturday, October 28, 2023 8:53 PM PDT
Current time: Friday, June 14, 2024 4:33 AM PDT

Current weather – Weather history – Daily summaries
Weather forecast

Temperature4.4°C (39.9°F)
Wind chill2.6°C (36.7°F)
Dew point-1.1°C (30.0°F)
Winds 4 kts (2.1 m/s, 4.6 mph) North (360°)
Visibility10 mi. (16.1 km)
Clouds Sky clear
Altimeter30.51 in.Hg (1033 mB)
Relative humidity67 %
Density altitude-1,887 ft. (-575 m)
Sea-level pressure103.4 kPa (1034 mB, 30.53 in.Hg)
Remarks Fully automated report
Automated weather observing station with precipitation discriminator
Flight conditions Visual Meteorological Conditions
Raw dataKPAE 290353Z AUTO 36004KT 10SM CLR 04/M01 A3051 RMK AO2 SLP337 T00441011
An error has occurred. This application may no longer respond until reloaded. Reload 🗙